Time;durP1;ratioP1;P1;durP2;ratioP2;P2;SDS_P1;SDS_P2;PMS_P1;PMS_P2;Temp;Humidity;BMP_temperature;BMP_pressure;BME280_temperature;BME280_humidity;BME280_pressure;Samples;Min_cycle;Max_cycle;Signal;HPM_P1;HPM_P2
2020/12/24 00:01:54;;;;;;;41.78;26.85;;;;;;;7.22;100.00;98228.09;4939239;28;46108;-86
2020/12/24 00:04:19;;;;;;;42.75;27.08;;;;;;;7.25;100.00;98226.00;4937431;28;45532;-87
2020/12/24 00:06:44;;;;;;;39.28;25.27;;;;;;;7.28;100.00;98238.97;4954158;28;45319;-87
2020/12/24 00:09:10;;;;;;;39.17;24.80;;;;;;;7.32;100.00;98226.31;4939194;28;45342;-87
2020/12/24 00:11:35;;;;;;;41.58;27.83;;;;;;;7.25;100.00;98233.13;4939226;28;45339;-87
2020/12/24 00:14:01;;;;;;;43.28;27.23;;;;;;;7.27;100.00;98228.53;4939445;28;45388;-87
2020/12/24 00:16:26;;;;;;;43.33;25.88;;;;;;;7.35;100.00;98215.47;4938991;28;45379;-88
2020/12/24 00:18:51;;;;;;;37.85;23.40;;;;;;;7.33;100.00;98203.31;4939318;28;45289;-87
2020/12/24 00:21:17;;;;;;;36.03;23.58;;;;;;;7.36;100.00;98216.28;4938967;28;46560;-88
2020/12/24 00:23:42;;;;;;;38.55;23.77;;;;;;;7.26;100.00;98225.03;4939208;28;45359;-87
2020/12/24 00:26:08;;;;;;;38.13;24.58;;;;;;;7.29;100.00;98224.75;4939191;28;45395;-88
2020/12/24 00:28:33;;;;;;;54.08;28.67;;;;;;;7.28;100.00;98215.16;4954119;28;45727;-87
2020/12/24 00:31:00;;;;;;;35.75;21.55;;;;;;;7.23;100.00;98206.78;4938808;28;45358;-86
2020/12/24 00:33:26;;;;;;;40.88;24.73;;;;;;;7.28;100.00;98204.56;4939292;28;45259;-87
2020/12/24 00:35:51;;;;;;;35.83;24.10;;;;;;;7.31;100.00;98192.91;4941395;28;45247;-88
2020/12/24 00:38:17;;;;;;;37.95;23.02;;;;;;;7.25;100.00;98196.91;4957292;28;45548;-88
2020/12/24 00:40:42;;;;;;;37.78;23.95;;;;;;;7.12;100.00;98205.13;4957132;28;47461;-88
2020/12/24 00:43:08;;;;;;;35.40;23.35;;;;;;;7.21;100.00;98198.16;4942342;28;45414;-87
2020/12/24 00:45:33;;;;;;;40.50;24.73;;;;;;;7.21;100.00;98194.69;4942431;28;45340;-88
2020/12/24 00:47:58;;;;;;;37.63;24.52;;;;;;;7.27;100.00;98194.16;4942586;28;45211;-88
2020/12/24 00:50:24;;;;;;;36.70;25.00;;;;;;;7.28;100.00;98187.88;4942186;28;45235;-87
2020/12/24 00:52:49;;;;;;;37.30;24.20;;;;;;;7.30;100.00;98194.69;4942357;28;45291;-88
2020/12/24 00:55:14;;;;;;;30.67;21.08;;;;;;;7.33;100.00;98200.69;4956815;28;45445;-87
2020/12/24 00:57:40;;;;;;;32.95;21.70;;;;;;;7.27;100.00;98197.63;4957147;28;45552;-88
2020/12/24 01:00:07;;;;;;;31.20;19.98;;;;;;;7.27;100.00;98200.25;4942017;28;45722;-87
2020/12/24 01:02:33;;;;;;;31.05;20.15;;;;;;;7.29;100.00;98203.59;4942163;28;45410;-88
2020/12/24 01:04:59;;;;;;;35.03;20.90;;;;;;;7.33;100.00;98212.13;4940055;28;45579;-88
2020/12/24 01:07:24;;;;;;;37.45;21.95;;;;;;;7.35;100.00;98204.03;4941945;28;45513;-88
2020/12/24 01:09:49;;;;;;;34.75;22.15;;;;;;;7.39;100.00;98189.56;4941764;28;46634;-88
2020/12/24 01:12:15;;;;;;;33.47;22.55;;;;;;;7.41;100.00;98183.16;4942265;28;45308;-88
2020/12/24 01:14:40;;;;;;;40.40;25.13;;;;;;;7.43;100.00;98185.66;4956863;28;45366;-87
2020/12/24 01:17:06;;;;;;;42.88;25.05;;;;;;;7.14;100.00;98208.47;4941709;28;45236;-86
2020/12/24 01:19:31;;;;;;;39.42;22.65;;;;;;;7.18;100.00;98219.59;4941762;28;45554;-86
2020/12/24 01:21:57;;;;;;;27.30;18.10;;;;;;;7.21;100.00;98224.59;4941589;28;45225;-87
2020/12/24 01:24:22;;;;;;;25.70;17.83;;;;;;;7.24;100.00;98210.28;4957157;28;45561;-88
2020/12/24 01:26:49;;;;;;;24.98;17.45;;;;;;;7.19;100.00;98223.91;4942702;28;45469;-87
2020/12/24 01:29:15;;;;;;;24.08;15.85;;;;;;;7.22;100.00;98212.22;4941775;28;46220;-86
2020/12/24 01:31:47;;;;;;;24.73;16.85;;;;;;;6.89;100.00;98219.47;4941947;28;45310;-86
2020/12/24 01:34:14;;;;;;;30.10;17.85;;;;;;;7.05;100.00;98219.81;4941586;28;45220;-86
2020/12/24 01:36:40;;;;;;;24.55;15.57;;;;;;;7.15;100.00;98235.72;4941727;28;45604;-87
2020/12/24 01:39:05;;;;;;;23.27;15.23;;;;;;;7.20;100.00;98230.03;4955956;28;48294;-87
2020/12/24 01:41:31;;;;;;;21.92;14.85;;;;;;;7.18;100.00;98224.88;4940246;28;45454;-86
2020/12/24 01:43:56;;;;;;;23.73;15.18;;;;;;;7.21;100.00;98234.38;4941555;28;45425;-87
2020/12/24 01:46:22;;;;;;;22.92;15.57;;;;;;;7.24;100.00;98239.38;4941210;28;45548;-86
2020/12/24 01:48:47;;;;;;;24.70;15.88;;;;;;;7.25;100.00;98243.69;4941308;28;46065;-86
2020/12/24 01:51:23;;;;;;;20.90;13.98;;;;;;;7.23;100.00;98243.81;4941710;28;45415;-86
2020/12/24 01:53:48;;;;;;;21.55;14.55;;;;;;;7.20;100.00;98233.50;4941207;28;45330;-87
2020/12/24 01:56:14;;;;;;;24.60;15.57;;;;;;;7.22;100.00;98236.84;4941273;28;45421;-87
2020/12/24 01:58:40;;;;;;;21.98;15.05;;;;;;;7.18;100.00;98238.09;4956074;28;47111;-87
2020/12/24 02:01:05;;;;;;;20.77;14.65;;;;;;;7.13;100.00;98248.25;4939925;28;45354;-87
2020/12/24 02:03:30;;;;;;;24.77;15.48;;;;;;;7.19;100.00;98253.00;4939151;28;45281;-87
2020/12/24 02:05:57;;;;;;;22.33;14.60;;;;;;;7.17;100.00;98259.41;4941263;28;45296;-86
2020/12/24 02:08:23;;;;;;;22.00;14.43;;;;;;;7.17;100.00;98259.41;4940632;28;45488;-87
2020/12/24 02:10:48;;;;;;;23.23;14.43;;;;;;;7.20;100.00;98254.66;4941278;28;45183;-87
2020/12/24 02:13:14;;;;;;;22.67;15.15;;;;;;;7.23;100.00;98256.22;4941145;28;45216;-86
2020/12/24 02:15:39;;;;;;;24.30;15.45;;;;;;;7.23;100.00;98264.16;4940873;28;45174;-86
2020/12/24 02:18:05;;;;;;;22.23;13.90;;;;;;;7.20;100.00;98259.97;4940623;28;46024;-88
2020/12/24 02:20:31;;;;;;;20.92;14.27;;;;;;;7.15;100.00;98257.75;4941573;28;45441;-86
2020/12/24 02:22:56;;;;;;;24.23;15.05;;;;;;;7.13;100.00;98243.81;4940940;28;45329;-87
2020/12/24 02:25:21;;;;;;;24.05;15.40;;;;;;;7.15;100.00;98247.16;4939681;28;45534;-88
2020/12/24 02:27:47;;;;;;;21.38;14.25;;;;;;;7.19;100.00;98239.78;4940763;28;45307;-87
2020/12/24 02:30:12;;;;;;;23.55;14.77;;;;;;;7.19;100.00;98247.72;4940945;28;45314;-87
2020/12/24 02:32:38;;;;;;;20.92;14.60;;;;;;;7.00;100.00;98253.75;4955474;28;45477;-87
2020/12/24 02:35:04;;;;;;;22.35;15.00;;;;;;;7.03;100.00;98256.13;4940928;28;45485;-87
2020/12/24 02:37:30;;;;;;;20.98;13.52;;;;;;;7.09;100.00;98257.41;4940362;28;45489;-87
2020/12/24 02:39:55;;;;;;;19.83;13.27;;;;;;;7.09;100.00;98253.00;4941113;28;45183;-87
2020/12/24 02:42:21;;;;;;;21.60;14.95;;;;;;;7.10;100.00;98256.44;4941096;28;45473;-85
2020/12/24 02:44:46;;;;;;;21.88;14.32;;;;;;;7.13;100.00;98258.81;4941454;28;45357;-87
2020/12/24 02:47:12;;;;;;;22.30;15.30;;;;;;;7.16;100.00;98253.28;4955216;28;47180;-86
2020/12/24 02:49:39;;;;;;;21.77;14.38;;;;;;;7.18;100.00;98242.56;4940635;28;45159;-88
2020/12/24 02:52:04;;;;;;;24.20;15.65;;;;;;;7.18;100.00;98240.75;4954716;28;45359;-84
2020/12/24 02:54:30;;;;;;;23.05;15.32;;;;;;;7.04;100.00;98235.84;4940425;28;45152;-85
2020/12/24 02:56:55;;;;;;;25.60;15.73;;;;;;;7.10;100.00;98251.16;4939766;28;45433;-84
2020/12/24 02:59:21;;;;;;;23.98;16.17;;;;;;;7.10;100.00;98259.94;4940261;28;45351;-85
2020/12/24 03:01:46;;;;;;;24.25;14.90;;;;;;;7.15;100.00;98270.09;4939985;28;45412;-84
2020/12/24 03:04:11;;;;;;;25.50;15.73;;;;;;;7.19;100.00;98273.34;4938584;28;45499;-85
2020/12/24 03:06:37;;;;;;;21.55;14.45;;;;;;;7.21;100.00;98266.94;4939089;28;45434;-84
2020/12/24 03:09:02;;;;;;;31.27;16.85;;;;;;;7.22;100.00;98265.97;4938530;28;45898;-85
2020/12/24 03:11:28;;;;;;;26.60;15.40;;;;;;;7.14;100.00;98274.56;4940331;28;45471;-85
2020/12/24 03:13:53;;;;;;;21.80;15.77;;;;;;;7.21;100.00;98277.50;4939035;28;45557;-84
2020/12/24 03:16:19;;;;;;;25.83;15.38;;;;;;;7.23;100.00;98272.91;4939800;28;46239;-84
2020/12/24 03:18:44;;;;;;;21.92;13.63;;;;;;;7.26;100.00;98280.59;4940057;28;45534;-85
2020/12/24 03:21:09;;;;;;;21.10;14.73;;;;;;;7.29;100.00;98277.66;4940219;28;45335;-84
2020/12/24 03:23:35;;;;;;;17.23;12.43;;;;;;;7.27;100.00;98271.69;4938312;28;45332;-85
2020/12/24 03:26:00;;;;;;;22.75;14.70;;;;;;;7.30;100.00;98271.41;4954393;28;47942;-84
2020/12/24 03:28:26;;;;;;;19.52;13.77;;;;;;;7.30;100.00;98273.22;4940098;28;46218;-84
2020/12/24 03:30:51;;;;;;;19.17;11.75;;;;;;;7.21;100.00;98285.44;4954914;28;45231;-84
2020/12/24 03:33:16;;;;;;;22.40;13.50;;;;;;;7.25;100.00;98283.38;4939937;28;45215;-85
2020/12/24 03:35:42;;;;;;;21.55;13.27;;;;;;;7.25;100.00;98276.28;4938281;28;47226;-83
2020/12/24 03:38:08;;;;;;;20.27;12.55;;;;;;;7.08;100.00;98275.13;4939664;28;45307;-84
2020/12/24 03:40:33;;;;;;;18.92;12.35;;;;;;;7.13;100.00;98277.34;4940008;28;45318;-84
2020/12/24 03:42:58;;;;;;;18.48;12.60;;;;;;;7.16;100.00;98287.66;4954514;28;45366;-85
2020/12/24 03:45:24;;;;;;;20.25;12.70;;;;;;;7.12;100.00;98288.88;4939553;28;46228;-85
2020/12/24 03:47:49;;;;;;;19.20;12.45;;;;;;;7.11;100.00;98295.16;4938384;28;45321;-85
2020/12/24 03:50:15;;;;;;;16.55;10.75;;;;;;;7.22;100.00;98300.34;4954579;28;45413;-85
2020/12/24 03:52:40;;;;;;;16.42;10.07;;;;;;;7.12;100.00;98320.63;4938172;28;45664;-85
2020/12/24 03:55:05;;;;;;;13.88;8.95;;;;;;;7.18;100.00;98313.97;4939294;28;45329;-85
2020/12/24 03:57:31;;;;;;;15.68;9.88;;;;;;;7.27;100.00;98308.72;4939796;28;45485;-85
2020/12/24 03:59:56;;;;;;;15.18;10.23;;;;;;;7.33;100.00;98306.50;4939657;28;45480;-85
2020/12/24 04:02:22;;;;;;;17.50;9.85;;;;;;;7.34;100.00;98305.53;4925209;28;45352;-85
2020/12/24 04:04:47;;;;;;;12.90;8.73;;;;;;;7.36;100.00;98311.53;4939382;28;46042;-85
2020/12/24 04:07:12;;;;;;;14.18;8.90;;;;;;;7.34;100.00;98302.88;4938906;28;45297;-84
2020/12/24 04:09:38;;;;;;;13.18;8.85;;;;;;;7.38;100.00;98314.88;4939703;28;45317;-85
2020/12/24 04:12:03;;;;;;;13.40;8.23;;;;;;;7.19;100.00;98321.78;4939320;28;45355;-85
2020/12/24 04:14:30;;;;;;;14.38;8.52;;;;;;;7.26;100.00;98312.31;4939291;28;45303;-85
2020/12/24 04:16:55;;;;;;;9.55;6.22;;;;;;;7.25;100.00;98337.09;4937838;28;45373;-85
2020/12/24 04:19:21;;;;;;;13.18;7.63;;;;;;;7.26;100.00;98338.78;4939439;28;45223;-85
2020/12/24 04:21:46;;;;;;;41.30;12.02;;;;;;;7.20;100.00;98349.91;4938924;28;45449;-84
2020/12/24 04:24:11;;;;;;;19.63;10.23;;;;;;;7.27;100.00;98352.88;4939308;28;45452;-85
2020/12/24 04:26:37;;;;;;;69.63;12.93;;;;;;;7.05;100.00;98353.84;4939084;28;45252;-84
2020/12/24 04:29:02;;;;;;;17.65;10.77;;;;;;;7.19;100.00;98353.50;4939634;28;45343;-85
2020/12/24 04:31:28;;;;;;;12.25;8.57;;;;;;;7.27;100.00;98358.16;4953805;28;45618;-85
2020/12/24 04:33:53;;;;;;;14.32;9.40;;;;;;;7.32;100.00;98360.38;4937980;28;48291;-80
2020/12/24 04:36:18;;;;;;;12.65;8.35;;;;;;;7.35;100.00;98363.63;4938811;28;45311;-81
2020/12/24 04:38:44;;;;;;;10.77;8.38;;;;;;;7.35;100.00;98358.31;4937726;28;45230;-81
2020/12/24 04:41:10;;;;;;;11.52;7.90;;;;;;;7.26;100.00;98354.66;4937685;28;45536;-81
2020/12/24 04:43:38;;;;;;;12.30;6.80;;;;;;;7.20;100.00;98357.81;4939014;28;45868;-81
2020/12/24 04:46:05;;;;;;;11.48;8.00;;;;;;;7.26;100.00;98370.53;4953631;28;45371;-80
2020/12/24 04:48:31;;;;;;;9.40;5.63;;;;;;;7.26;100.00;98377.63;4939377;28;45299;-81
2020/12/24 04:50:58;;;;;;;10.90;6.47;;;;;;;7.26;100.00;98380.28;4938874;28;45575;-81
2020/12/24 04:53:25;;;;;;;11.82;6.35;;;;;;;7.34;100.00;98383.09;4938645;28;45295;-81
2020/12/24 04:55:53;;;;;;;8.50;6.47;;;;;;;7.40;100.00;98385.22;4938545;28;45331;-81
2020/12/24 04:58:19;;;;;;;9.52;6.38;;;;;;;7.42;100.00;98379.78;4937784;28;45403;-81
2020/12/24 05:00:45;;;;;;;8.55;6.05;;;;;;;7.45;100.00;98382.16;4936408;28;45397;-81
2020/12/24 05:03:12;;;;;;;10.20;6.30;;;;;;;7.45;100.00;98379.50;4928280;28;45361;-81
2020/12/24 05:05:38;;;;;;;10.73;6.70;;;;;;;7.44;100.00;98377.84;4938493;28;45396;-81
2020/12/24 05:08:06;;;;;;;8.05;5.82;;;;;;;7.35;100.00;98376.00;4937221;28;45352;-81
2020/12/24 05:10:33;;;;;;;20.70;12.00;;;;;;;7.12;100.00;98377.03;4937348;28;45548;-81
2020/12/24 05:12:59;;;;;;;16.17;8.93;;;;;;;7.13;100.00;98380.47;4937428;28;47719;-81
2020/12/24 05:15:26;;;;;;;9.25;6.85;;;;;;;7.23;100.00;98369.97;4938482;28;45458;-82
2020/12/24 05:17:51;;;;;;;11.85;7.57;;;;;;;7.29;100.00;98370.25;4938552;28;45293;-81
2020/12/24 05:20:17;;;;;;;6.60;4.63;;;;;;;7.36;100.00;98369.72;4938705;28;45466;-82
2020/12/24 05:22:42;;;;;;;7.00;3.55;;;;;;;7.35;100.00;98379.50;4941681;28;46025;-82
2020/12/24 05:25:19;;;;;;;219.65;21.08;;;;;;;7.29;100.00;98374.72;4940482;28;45268;-81
2020/12/24 05:27:55;;;;;;;202.50;21.83;;;;;;;7.12;100.00;98373.53;4942113;28;45232;-82
2020/12/24 05:30:27;;;;;;;176.88;21.88;;;;;;;7.11;100.00;98371.84;4929349;28;45406;-82
2020/12/24 05:32:53;;;;;;;510.40;44.00;;;;;;;7.19;100.00;98368.56;4941444;28;45425;-82
2020/12/24 05:35:23;;;;;;;107.25;17.75;;;;;;;7.13;100.00;98375.19;4941871;28;45276;-82
2020/12/24 05:37:50;;;;;;;449.08;31.60;;;;;;;7.17;100.00;98367.84;4936997;28;45681;-81
2020/12/24 05:40:26;;;;;;;411.77;34.95;;;;;;;7.20;100.00;98375.53;4941789;28;45548;-82
2020/12/24 05:42:57;;;;;;;228.95;24.42;;;;;;;7.20;100.00;98379.00;4941333;28;45493;-82
2020/12/24 05:45:26;;;;;;;101.35;19.02;;;;;;;7.25;100.00;98383.91;4941524;28;45243;-82
2020/12/24 05:48:13;;;;;;;45.75;15.18;;;;;;;7.25;100.00;98381.25;4941440;28;45311;-82
2020/12/24 05:50:40;;;;;;;22.77;12.40;;;;;;;7.24;100.00;98383.03;4941467;28;45384;-87
2020/12/24 05:53:09;;;;;;;23.50;13.93;;;;;;;7.25;100.00;98390.00;4941217;28;46006;-87
2020/12/24 05:55:36;;;;;;;6.90;4.93;;;;;;;7.26;100.00;98386.41;4941038;28;45490;-87
2020/12/24 05:58:02;;;;;;;4.70;2.60;;;;;;;7.22;100.00;98390.28;4941675;28;45243;-88
2020/12/24 06:00:32;;;;;;;8.07;2.97;;;;;;;7.27;100.00;98388.06;4941209;28;45362;-87
2020/12/24 06:03:07;;;;;;;;;;;;;;;7.36;100.00;98385.59;4929104;28;45416;-87
2020/12/24 06:05:51;;;;;;;3.78;2.10;;;;;;;7.39;100.00;98372.97;4968487;28;45823;-86
2020/12/24 06:08:20;;;;;;;3.65;1.65;;;;;;;7.39;100.00;98366.81;4937243;28;45704;-87
2020/12/24 06:10:46;;;;;;;2.65;1.73;;;;;;;7.42;100.00;98372.69;4940496;28;45204;-88
2020/12/24 06:13:32;;;;;;;2.58;1.65;;;;;;;7.43;100.00;98377.03;4940266;28;45320;-87
2020/12/24 06:16:03;;;;;;;1022.28;66.32;;;;;;;7.21;100.00;98377.19;4951274;28;45438;-87
2020/12/24 06:18:31;;;;;;;305.85;32.00;;;;;;;7.19;100.00;98387.06;4940577;28;45330;-88
2020/12/24 06:20:59;;;;;;;127.63;23.30;;;;;;;7.20;100.00;98392.22;4940226;28;45601;-87
2020/12/24 06:23:26;;;;;;;203.57;27.80;;;;;;;7.21;100.00;98385.13;4954621;28;47112;-87
2020/12/24 06:25:56;;;;;;;274.55;32.78;;;;;;;7.19;100.00;98390.53;4940223;28;45488;-87
2020/12/24 06:28:23;;;;;;;32.93;17.30;;;;;;;7.18;100.00;98383.56;4940453;28;45471;-88
2020/12/24 06:30:50;;;;;;;75.07;22.90;;;;;;;7.17;100.00;98373.97;4940361;28;45363;-88
2020/12/24 06:33:26;;;;;;;28.30;18.42;;;;;;;7.03;100.00;98376.94;4938923;28;45417;-88
2020/12/24 06:35:52;;;;;;;31.25;19.08;;;;;;;6.97;100.00;98378.28;4939914;28;45437;-87
2020/12/24 06:38:18;;;;;;;25.08;15.73;;;;;;;7.08;100.00;98382.69;4939788;28;45449;-88
2020/12/24 06:40:44;;;;;;;16.95;11.30;;;;;;;7.12;100.00;98381.44;4939860;28;45292;-87
2020/12/24 06:43:10;;;;;;;10.57;7.88;;;;;;;7.15;100.00;98395.28;4939854;28;45393;-88
2020/12/24 06:45:40;;;;;;;8.60;5.65;;;;;;;7.08;100.00;98398.56;4939820;28;45409;-87
2020/12/24 06:48:21;;;;;;;4.15;1.30;;;;;;;7.10;100.00;98392.19;4940145;28;45279;-88
2020/12/24 06:50:52;;;;;;;1.25;0.80;;;;;;;7.15;100.00;98397.06;4938671;28;45646;-88
2020/12/24 06:53:17;;;;;;;4.30;0.77;;;;;;;7.17;100.00;98392.47;4939398;28;46004;-88
2020/12/24 06:55:42;;;;;;;2.03;0.80;;;;;;;7.03;100.00;98392.81;4939549;28;45402;-88
2020/12/24 06:58:08;;;;;;;4.10;0.50;;;;;;;7.13;100.00;98391.06;4954890;28;45402;-88
2020/12/24 07:00:33;;;;;;;3.38;0.50;;;;;;;7.16;100.00;98380.22;4938967;28;45653;-88
2020/12/24 07:03:25;;;;;;;1.67;0.60;;;;;;;6.99;100.00;98373.72;4929830;28;46181;-88
2020/12/24 07:05:51;;;;;;;1.67;0.60;;;;;;;7.10;100.00;98370.16;4953012;28;45684;-88
2020/12/24 07:08:31;;;;;;;8.40;1.20;;;;;;;6.95;100.00;98381.09;4939263;28;45259;-89
2020/12/24 07:10:58;;;;;;;2.28;0.70;;;;;;;6.93;100.00;98372.44;4938442;28;45528;-88
2020/12/24 07:13:36;;;;;;;1.98;1.23;;;;;;;6.96;100.00;98373.97;4938296;28;46337;-88
2020/12/24 07:16:13;;;;;;;3.30;0.77;;;;;;;7.05;100.00;98359.16;4955060;28;45377;-89
2020/12/24 07:18:40;;;;;;;4.60;1.10;;;;;;;7.07;100.00;98351.91;4939406;28;45622;-89
2020/12/24 07:21:08;;;;;;;1.88;0.60;;;;;;;7.01;100.00;98342.69;4939525;28;45475;-89
2020/12/24 07:23:38;;;;;;;16.33;6.57;;;;;;;7.03;100.00;98342.56;4953516;28;46859;-89
2020/12/24 07:26:08;;;;;;;204.48;21.67;;;;;;;7.00;100.00;98347.16;4938079;28;45786;-88
2020/12/24 07:28:35;;;;;;;116.78;14.77;;;;;;;6.91;100.00;98355.03;4938074;28;45584;-89
2020/12/24 07:31:06;;;;;;;565.90;47.25;;;;;;;6.96;100.00;98336.97;4953497;28;45598;-89
2020/12/24 07:33:32;;;;;;;408.98;33.47;;;;;;;6.89;100.00;98341.94;4938563;28;46545;-86
2020/12/24 07:35:58;;;;;;;400.52;37.83;;;;;;;6.89;100.00;98344.59;4937839;28;45467;-81
2020/12/24 07:38:26;;;;;;;123.97;18.45;;;;;;;6.72;100.00;98340.72;4938531;28;45350;-80
2020/12/24 07:40:52;;;;;;;24.70;11.32;;;;;;;6.82;100.00;98324.94;4939026;28;45470;-81
2020/12/24 07:43:17;;;;;;;11.10;4.97;;;;;;;6.69;100.00;98323.34;4938496;28;46089;-85
2020/12/24 07:45:44;;;;;;;5.28;3.72;;;;;;;6.82;100.00;98317.00;4939237;28;45429;-84
2020/12/24 07:48:11;;;;;;;4.07;2.38;;;;;;;6.77;100.00;98313.91;4938273;28;45502;-85
2020/12/24 07:50:36;;;;;;;4.60;1.88;;;;;;;6.86;100.00;98321.06;4938149;28;45603;-87
2020/12/24 07:53:02;;;;;;;2.97;1.20;;;;;;;6.84;100.00;98312.44;4936027;28;47794;-79
2020/12/24 07:55:27;;;;;;;2.53;1.02;;;;;;;6.86;100.00;98321.06;4938045;28;45549;-82
2020/12/24 07:58:05;;;;;;;3.70;2.45;;;;;;;6.79;100.00;98326.03;4938655;28;45296;-81
2020/12/24 08:00:31;;;;;;;5.80;4.28;;;;;;;6.78;100.00;98339.38;4931235;28;45571;-83
2020/12/24 08:03:02;;;;;;;9.25;5.32;;;;;;;6.75;100.00;98342.28;4937271;28;45384;-82
2020/12/24 08:05:27;;;;;;;10.25;6.72;;;;;;;6.76;100.00;98346.59;4938603;28;45358;-82
2020/12/24 08:07:53;;;;;;;10.48;6.40;;;;;;;6.78;100.00;98353.41;4937225;28;45269;-82
2020/12/24 08:10:18;;;;;;;7.28;4.60;;;;;;;6.62;100.00;98368.88;4938228;28;45552;-83
2020/12/24 08:12:44;;;;;;;5.13;2.70;;;;;;;6.77;100.00;98364.13;4931459;28;46386;-81
2020/12/24 08:15:15;;;;;;;4.30;1.73;;;;;;;6.90;100.00;98372.72;4930800;28;45540;-82
2020/12/24 08:17:52;;;;;;;2.75;1.30;;;;;;;6.91;100.00;98371.75;4935682;28;45508;-80
2020/12/24 08:20:19;;;;;;;2.63;0.80;;;;;;;6.89;100.00;98381.59;4937956;28;45385;-79
2020/12/24 08:23:00;;;;;;;9.85;7.18;;;;;;;6.85;100.00;98380.19;4937607;28;45942;-78
2020/12/24 08:25:27;;;;;;;11.75;8.80;;;;;;;6.88;100.00;98376.44;4937511;28;45394;-81
2020/12/24 08:27:54;;;;;;;12.15;7.10;;;;;;;6.91;100.00;98381.47;4936550;28;45532;-79
2020/12/24 08:30:20;;;;;;;16.00;11.82;;;;;;;6.90;100.00;98396.50;4938049;28;45571;-80
2020/12/24 08:32:46;;;;;;;5.32;3.25;;;;;;;6.80;100.00;98400.88;4938196;28;45427;-80
2020/12/24 08:35:13;;;;;;;7.85;4.07;;;;;;;6.87;100.00;98394.13;4936253;28;45462;-80
2020/12/24 08:37:38;;;;;;;4.70;2.78;;;;;;;6.90;100.00;98393.84;4935697;28;45525;-81
2020/12/24 08:40:24;;;;;;;4.93;2.35;;;;;;;6.76;100.00;98387.06;4953556;28;45581;-87
2020/12/24 08:42:59;;;;;;;3.85;2.22;;;;;;;6.89;100.00;98392.19;4951242;28;47606;-86
2020/12/24 08:45:25;;;;;;;7.93;3.30;;;;;;;6.71;100.00;98397.19;4940129;28;45504;-88
2020/12/24 08:47:50;;;;;;;4.80;2.75;;;;;;;6.63;100.00;98397.00;4937127;28;45335;-88
2020/12/24 08:50:31;;;;;;;6.18;2.58;;;;;;;6.76;100.00;98399.47;4937103;28;45563;-88
2020/12/24 08:52:57;;;;;;;7.68;3.15;;;;;;;6.59;100.00;98401.69;4948937;28;47243;-88
2020/12/24 08:55:26;;;;;;;6.32;2.00;;;;;;;6.80;100.00;98392.97;4936269;28;45473;-86
2020/12/24 08:57:52;;;;;;;5.05;1.90;;;;;;;6.85;100.00;98393.41;4941819;28;45322;-82
2020/12/24 09:00:17;;;;;;;5.57;2.00;;;;;;;6.85;100.00;98380.19;4941258;28;45473;-82
2020/12/24 09:02:43;;;;;;;6.53;4.78;;;;;;;6.84;100.00;98389.09;4940432;28;46488;-83
2020/12/24 09:05:08;;;;;;;7.47;5.13;;;;;;;6.76;100.00;98386.25;4940607;28;45230;-87
2020/12/24 09:07:43;;;;;;;8.98;5.40;;;;;;;6.81;100.00;98381.41;4955955;28;45410;-89
2020/12/24 09:10:11;;;;;;;6.78;4.65;;;;;;;6.88;100.00;98382.56;4934000;28;45231;-85
2020/12/24 09:12:40;;;;;;;14.65;7.85;;;;;;;6.84;100.00;98378.50;4953517;28;47585;-80
2020/12/24 09:15:07;;;;;;;13.55;8.63;;;;;;;6.92;100.00;98370.78;4941067;28;45439;-80
2020/12/24 09:17:32;;;;;;;13.00;7.90;;;;;;;6.82;100.00;98368.06;4955445;28;45437;-85
2020/12/24 09:20:11;;;;;;;8.00;5.03;;;;;;;6.99;100.00;98374.56;4939845;28;45514;-85
2020/12/24 09:22:47;;;;;;;8.80;5.25;;;;;;;6.95;100.00;98370.50;4938853;28;45561;-82
2020/12/24 09:25:12;;;;;;;9.35;5.80;;;;;;;7.04;100.00;98371.50;4940690;28;45427;-87
2020/12/24 09:27:44;;;;;;;9.38;5.43;;;;;;;7.01;100.00;98377.91;4940822;28;45495;-80
2020/12/24 09:30:09;;;;;;;7.80;5.63;;;;;;;7.07;100.00;98367.78;4940843;28;45475;-82
2020/12/24 09:32:35;;;;;;;8.63;5.55;;;;;;;7.13;100.00;98368.13;4940778;28;46446;-82
2020/12/24 09:35:00;;;;;;;8.55;5.60;;;;;;;7.19;100.00;98369.38;4940403;28;45452;-83
2020/12/24 09:37:25;;;;;;;9.32;5.57;;;;;;;7.21;100.00;98374.56;4940445;28;45223;-83
2020/12/24 09:39:51;;;;;;;9.90;7.10;;;;;;;7.35;100.00;98384.78;4953920;28;45756;-84
2020/12/24 09:42:16;;;;;;;8.23;5.53;;;;;;;7.24;100.00;98383.03;4925465;28;46144;-84
2020/12/24 09:44:41;;;;;;;6.78;4.90;;;;;;;7.29;100.00;98386.13;4934329;28;45435;-82
2020/12/24 09:47:07;;;;;;;6.38;4.60;;;;;;;7.40;100.00;98374.63;4939780;28;45405;-84
2020/12/24 09:49:32;;;;;;;5.35;4.15;;;;;;;7.35;100.00;98368.06;4954391;28;45508;-84
2020/12/24 09:51:59;;;;;;;5.80;3.60;;;;;;;7.46;100.00;98367.97;4937552;28;46345;-82
2020/12/24 09:54:25;;;;;;;5.88;4.22;;;;;;;7.59;100.00;98379.19;4939677;28;45452;-83
2020/12/24 09:56:50;;;;;;;5.35;4.22;;;;;;;7.61;100.00;98396.75;4939606;28;45370;-83
2020/12/24 09:59:15;;;;;;;13.05;9.77;;;;;;;7.56;100.00;98392.69;4939921;28;45354;-82
2020/12/24 10:01:41;;;;;;;14.15;11.15;;;;;;;7.43;100.00;98382.31;4934258;28;45564;-80
2020/12/24 10:04:06;;;;;;;10.93;8.30;;;;;;;7.39;100.00;98369.47;4937911;28;45385;-78
2020/12/24 10:06:32;;;;;;;9.00;6.78;;;;;;;7.46;100.00;98354.72;4935561;28;45634;-82
2020/12/24 10:08:57;;;;;;;7.97;6.00;;;;;;;7.36;100.00;98353.84;4954976;28;45479;-84
2020/12/24 10:11:23;;;;;;;11.10;7.30;;;;;;;7.39;100.00;98364.19;4934949;28;45350;-91
2020/12/24 10:13:48;;;;;;;15.68;10.55;;;;;;;7.51;100.00;98380.81;4953598;28;45461;-91
2020/12/24 10:16:13;;;;;;;12.13;8.93;;;;;;;7.39;100.00;98391.47;4939912;28;45343;-85
2020/12/24 10:18:39;;;;;;;9.63;7.40;;;;;;;7.55;100.00;98391.00;4939956;28;45370;-88
2020/12/24 10:21:04;;;;;;;12.38;9.70;;;;;;;7.63;100.00;98378.91;4938833;28;46032;-86
2020/12/24 10:23:30;;;;;;;18.38;11.68;;;;;;;7.62;100.00;98370.13;4943870;28;45530;-81
2020/12/24 10:25:55;;;;;;;16.52;11.27;;;;;;;7.64;100.00;98367.34;4934446;28;45493;-84
2020/12/24 10:28:21;;;;;;;18.27;12.40;;;;;;;7.51;100.00;98359.63;4931373;28;45529;-86
2020/12/24 10:30:46;;;;;;;17.30;11.73;;;;;;;7.44;100.00;98367.25;4934300;28;46030;-83
2020/12/24 10:33:12;;;;;;;25.73;13.80;;;;;;;7.45;100.00;98366.28;4936576;28;45469;-82
2020/12/24 10:35:41;;;;;;;15.30;9.95;;;;;;;7.65;100.00;98363.72;4939433;28;45451;-85
2020/12/24 10:38:06;;;;;;;8.25;5.63;;;;;;;7.73;100.00;98351.47;4939639;28;45402;-84
2020/12/24 10:40:32;;;;;;;8.77;5.30;;;;;;;7.87;100.00;98350.28;4939753;28;45259;-84
2020/12/24 10:42:58;;;;;;;8.82;5.47;;;;;;;8.00;100.00;98351.81;4939365;28;45456;-82
2020/12/24 10:45:25;;;;;;;21.10;14.90;;;;;;;7.84;100.00;98350.53;4939663;28;45353;-83
2020/12/24 10:47:51;;;;;;;14.13;11.05;;;;;;;7.94;100.00;98347.91;4938680;28;45925;-83
2020/12/24 10:50:16;;;;;;;17.70;11.80;;;;;;;8.00;100.00;98331.47;4938335;28;47976;-81
2020/12/24 10:52:42;;;;;;;18.90;12.63;;;;;;;7.97;100.00;98328.25;4939336;28;45500;-82
2020/12/24 10:55:08;;;;;;;16.77;9.57;;;;;;;8.06;100.00;98327.44;4938961;28;45580;-81
2020/12/24 10:57:33;;;;;;;14.25;10.60;;;;;;;8.11;100.00;98309.31;4939131;28;45314;-82
2020/12/24 10:59:58;;;;;;;16.08;10.13;;;;;;;7.98;100.00;98298.16;4939388;28;45295;-78
2020/12/24 11:02:24;;;;;;;15.18;9.70;;;;;;;8.10;100.00;98301.53;4937009;28;45331;-75
2020/12/24 11:04:49;;;;;;;13.55;9.25;;;;;;;8.17;100.00;98300.81;4939092;28;45367;-78
2020/12/24 11:07:15;;;;;;;19.60;13.32;;;;;;;8.06;100.00;98297.47;4939124;28;45616;-78
2020/12/24 11:09:40;;;;;;;15.48;11.95;;;;;;;7.79;100.00;98305.09;4939246;28;45930;-78
2020/12/24 11:12:06;;;;;;;16.17;11.45;;;;;;;7.68;100.00;98292.00;4939453;28;45406;-78
2020/12/24 11:14:33;;;;;;;13.18;10.48;;;;;;;7.87;100.00;98285.88;4939507;28;45432;-79
2020/12/24 11:16:59;;;;;;;17.17;13.15;;;;;;;7.87;100.00;98288.50;4937310;28;45498;-78
2020/12/24 11:19:25;;;;;;;19.02;13.18;;;;;;;7.97;100.00;98288.53;4938782;28;46565;-78
2020/12/24 11:21:50;;;;;;;16.48;12.23;;;;;;;8.15;100.00;98276.28;4938903;28;45275;-78